Time;durP1;ratioP1;P1;durP2;ratioP2;P2;SDS_P1;SDS_P2;PMS_P1;PMS_P2;Temp;Humidity;BMP_temperature;BMP_pressure;BME280_temperature;BME280_humidity;BME280_pressure;Samples;Min_cycle;Max_cycle;Signal;HPM_P1;HPM_P2
2021/10/18 00:04:19;;;;;;;17.88;11.05;;;;;;;7.71;74.51;101133.53;8496351;33;20431;-73
2021/10/18 00:09:22;;;;;;;15.70;11.25;;;;;;;7.71;74.53;101135.34;8490324;33;20337;-74
2021/10/18 00:14:26;;;;;;;17.33;11.65;;;;;;;7.72;74.50;101135.25;8488103;33;21420;-74
2021/10/18 00:19:30;;;;;;;18.73;11.75;;;;;;;7.75;74.46;101134.22;8484065;33;20408;-73
2021/10/18 00:24:33;;;;;;;14.63;10.50;;;;;;;7.66;74.21;101134.75;8483493;33;20564;-74
2021/10/18 00:29:37;;;;;;;16.63;10.93;;;;;;;7.63;74.46;101133.13;8484057;33;20511;-73
2021/10/18 00:34:41;;;;;;;18.63;11.13;;;;;;;7.59;74.52;101126.19;8484541;33;20200;-73
2021/10/18 00:39:44;;;;;;;16.50;10.95;;;;;;;7.66;74.52;101127.59;8465006;33;20149;-73
2021/10/18 00:44:49;;;;;;;17.33;10.20;;;;;;;7.61;74.12;101110.94;8456480;33;20203;-73
2021/10/18 00:49:54;;;;;;;13.57;9.50;;;;;;;7.67;74.24;101134.66;8455746;33;20504;-73
2021/10/18 00:54:57;;;;;;;19.63;10.80;;;;;;;7.72;73.52;101127.22;8391512;34;20483;-74
2021/10/18 01:00:01;;;;;;;13.27;9.38;;;;;;;7.75;73.22;101136.03;8368120;34;21571;-73
2021/10/18 01:05:07;;;;;;;17.23;10.45;;;;;;;7.80;72.94;101120.59;8389854;34;21469;-74
2021/10/18 01:10:10;;;;;;;15.68;9.45;;;;;;;7.78;72.40;101119.81;8387334;34;20580;-74
2021/10/18 01:15:13;;;;;;;12.57;8.32;;;;;;;7.77;72.63;101108.25;8376498;34;20178;-74
2021/10/18 01:20:28;;;;;;;14.27;9.10;;;;;;;7.76;72.72;101116.34;8377112;34;20312;-74
2021/10/18 01:25:31;;;;;;;10.48;8.20;;;;;;;7.90;72.05;101106.59;8375057;34;20281;-74
2021/10/18 01:30:34;;;;;;;11.65;7.70;;;;;;;8.05;71.13;101128.91;8375961;34;20186;-74
2021/10/18 01:35:39;;;;;;;9.85;6.30;;;;;;;8.17;70.26;101120.16;8376838;34;20515;-74
2021/10/18 01:40:42;;;;;;;13.40;8.18;;;;;;;8.24;69.88;101130.50;8377377;34;20193;-73
2021/10/18 01:45:45;;;;;;;11.45;7.45;;;;;;;8.22;69.74;101127.91;8384152;34;20181;-74
2021/10/18 01:50:50;;;;;;;8.50;6.55;;;;;;;8.16;69.62;101131.81;8390442;34;20185;-73
2021/10/18 01:55:53;;;;;;;13.30;7.70;;;;;;;8.18;70.00;101131.72;8390724;34;20205;-74
2021/10/18 02:00:56;;;;;;;14.23;8.45;;;;;;;8.24;70.17;101133.19;8397148;34;20150;-73
2021/10/18 02:06:00;;;;;;;10.80;7.43;;;;;;;8.23;70.31;101142.13;8397176;34;20214;-74
2021/10/18 02:11:03;;;;;;;10.93;7.72;;;;;;;8.20;70.49;101143.22;8398696;34;20432;-74
2021/10/18 02:16:07;;;;;;;12.23;8.00;;;;;;;8.21;70.66;101141.41;8397023;34;20473;-74
2021/10/18 02:21:12;;;;;;;15.48;8.02;;;;;;;8.16;71.02;101145.19;8390700;34;21080;-74
2021/10/18 02:26:15;;;;;;;15.55;9.40;;;;;;;8.06;71.86;101144.00;8391601;34;20139;-73
2021/10/18 02:31:18;;;;;;;13.98;8.65;;;;;;;7.94;72.52;101145.56;8388837;34;20151;-73
2021/10/18 02:36:22;;;;;;;10.15;8.65;;;;;;;7.95;72.61;101143.75;8385064;34;20170;-74
2021/10/18 02:41:26;;;;;;;12.52;8.55;;;;;;;7.95;72.50;101133.06;8376297;34;20421;-74
2021/10/18 02:46:29;;;;;;;17.85;9.05;;;;;;;7.91;72.59;101132.38;8383583;34;20422;-73
2021/10/18 02:51:34;;;;;;;14.02;8.63;;;;;;;7.89;72.40;101142.31;8377303;34;20430;-74
2021/10/18 02:56:37;;;;;;;14.73;9.07;;;;;;;7.87;72.59;101146.91;8373628;34;20189;-73
2021/10/18 03:01:40;;;;;;;13.18;8.88;;;;;;;7.85;72.83;101150.63;8371529;34;20455;-73
2021/10/18 03:06:45;;;;;;;12.23;8.55;;;;;;;7.82;72.66;101145.44;8374282;34;20453;-73
2021/10/18 03:11:48;;;;;;;12.02;8.45;;;;;;;7.79;72.88;101146.47;8375199;34;20158;-73
2021/10/18 03:16:51;;;;;;;10.80;8.18;;;;;;;7.82;72.85;101148.13;8374648;34;20161;-73
2021/10/18 03:21:55;;;;;;;11.18;7.68;;;;;;;7.79;72.87;101148.25;8387546;34;20182;-74
2021/10/18 03:26:58;;;;;;;10.75;8.10;;;;;;;7.72;73.16;101145.09;8388152;34;20452;-73
2021/10/18 03:32:01;;;;;;;11.75;8.13;;;;;;;7.65;72.99;101135.69;8386938;34;22546;-73
2021/10/18 03:37:06;;;;;;;9.93;7.57;;;;;;;7.61;72.88;101126.13;8378748;34;20426;-73
2021/10/18 03:42:09;;;;;;;11.20;7.88;;;;;;;7.58;72.81;101132.50;8378176;34;20237;-73
2021/10/18 03:47:13;;;;;;;12.05;8.35;;;;;;;7.51;72.74;101144.47;8355047;34;20289;-73
2021/10/18 03:52:18;;;;;;;14.55;9.27;;;;;;;7.46;73.09;101144.75;8377319;34;20251;-73
2021/10/18 03:57:25;;;;;;;16.42;8.05;;;;;;;7.45;72.66;101129.66;8377284;34;20221;-73
2021/10/18 04:02:28;;;;;;;12.88;8.18;;;;;;;7.42;72.73;101134.31;8354590;34;20151;-73
2021/10/18 04:07:32;;;;;;;14.00;7.97;;;;;;;7.39;72.49;101153.19;8376617;34;20731;-73
2021/10/18 04:12:35;;;;;;;13.93;8.00;;;;;;;7.36;73.16;101151.56;8377374;34;20448;-73
2021/10/18 04:17:39;;;;;;;12.30;8.23;;;;;;;7.38;73.19;101154.16;8377414;34;21141;-73
2021/10/18 04:22:46;;;;;;;9.88;7.45;;;;;;;7.38;73.36;101154.16;8377330;34;20484;-73
2021/10/18 04:27:49;;;;;;;10.70;7.35;;;;;;;7.39;73.29;101169.25;8376331;34;20196;-73
2021/10/18 04:32:52;;;;;;;16.55;8.15;;;;;;;7.37;73.40;101169.31;8377975;34;20480;-73
2021/10/18 04:37:56;;;;;;;12.15;7.95;;;;;;;7.33;73.29;101159.75;8372663;34;20371;-73
2021/10/18 04:43:01;;;;;;;10.43;7.15;;;;;;;7.36;73.19;101156.06;8366077;34;20428;-73
2021/10/18 04:48:05;;;;;;;10.93;7.07;;;;;;;7.36;73.18;101164.94;8369259;34;20424;-73
2021/10/18 04:53:10;;;;;;;11.45;7.43;;;;;;;7.34;73.18;101161.47;8371590;34;20520;-73
2021/10/18 04:58:13;;;;;;;12.75;7.90;;;;;;;7.35;73.54;101155.19;8375126;34;20143;-73
2021/10/18 05:03:16;;;;;;;13.77;8.38;;;;;;;7.33;73.65;101159.75;8376251;34;20746;-73
2021/10/18 05:08:21;;;;;;;10.95;7.88;;;;;;;7.32;73.88;101159.81;8370972;34;20213;-74
2021/10/18 05:13:25;;;;;;;12.18;7.45;;;;;;;7.25;73.65;101156.66;8368349;34;20425;-73
2021/10/18 05:18:28;;;;;;;11.20;7.72;;;;;;;7.24;73.90;101160.25;8370742;34;20538;-73
2021/10/18 05:23:33;;;;;;;12.57;8.27;;;;;;;7.25;73.81;101168.19;8379129;34;20415;-73
2021/10/18 05:28:36;;;;;;;11.73;7.82;;;;;;;7.24;73.85;101168.25;8391648;34;20147;-73
2021/10/18 05:33:39;;;;;;;14.50;8.05;;;;;;;7.23;73.75;101180.75;8391554;34;20840;-73
2021/10/18 05:38:43;;;;;;;12.93;9.10;;;;;;;7.22;73.78;101176.38;8391336;34;20669;-73
2021/10/18 05:43:46;;;;;;;14.43;9.13;;;;;;;7.15;74.41;101182.13;8391384;34;21931;-73
2021/10/18 05:48:49;;;;;;;14.23;8.85;;;;;;;7.08;74.44;101184.28;8393676;34;20983;-73
2021/10/18 05:53:54;;;;;;;15.70;9.93;;;;;;;7.04;74.87;101188.03;8370867;34;21140;-73
2021/10/18 05:58:59;;;;;;;15.30;9.07;;;;;;;7.05;74.75;101189.78;8392806;34;20491;-73
2021/10/18 06:04:03;;;;;;;12.07;8.73;;;;;;;7.03;74.62;101179.19;8356487;34;20888;-72
2021/10/18 06:09:10;;;;;;;16.08;9.60;;;;;;;7.07;74.58;101195.91;8414088;33;20418;-72
2021/10/18 06:14:13;;;;;;;15.98;9.07;;;;;;;7.11;74.45;101200.16;8494508;33;20165;-72
2021/10/18 06:19:16;;;;;;;14.48;8.60;;;;;;;7.41;74.16;101202.09;8487217;33;20724;-72
2021/10/18 06:24:20;;;;;;;12.80;9.65;;;;;;;7.75;73.22;101206.44;8456423;33;20150;-72
2021/10/18 06:29:25;;;;;;;14.27;8.65;;;;;;;8.06;71.45;101205.53;8451457;33;20432;-72
2021/10/18 06:34:28;;;;;;;11.05;8.35;;;;;;;7.90;71.01;101210.94;8439621;33;20154;-72
2021/10/18 06:39:32;;;;;;;12.68;8.77;;;;;;;7.87;71.26;101215.56;8434289;33;20144;-72
2021/10/18 06:44:36;;;;;;;12.45;8.15;;;;;;;7.85;71.22;101220.16;8457727;33;20424;-72
2021/10/18 06:49:39;;;;;;;15.68;8.10;;;;;;;7.85;70.91;101220.16;8431526;33;20133;-72
2021/10/18 06:54:43;;;;;;;11.60;8.45;;;;;;;8.04;70.98;101230.69;8428673;34;20149;-72
2021/10/18 06:59:46;;;;;;;12.63;8.70;;;;;;;8.12;70.97;101228.44;8430186;34;20460;-72
2021/10/18 07:04:49;;;;;;;14.85;8.45;;;;;;;8.30;70.63;101240.75;8429599;34;20406;-72
2021/10/18 07:09:59;;;;;;;6.05;3.67;;;;;;;8.37;70.01;101233.22;8442347;34;20444;-73
2021/10/18 07:15:04;;;;;;;11.25;7.38;;;;;;;8.74;69.66;101239.13;8448496;34;20439;-72
2021/10/18 07:20:09;;;;;;;9.63;6.38;;;;;;;9.19;69.05;101239.97;8448672;34;20284;-72
2021/10/18 07:25:14;;;;;;;11.85;6.18;;;;;;;9.60;67.13;101240.06;8461330;33;20210;-71
2021/10/18 07:30:18;;;;;;;8.13;5.95;;;;;;;9.85;65.19;101242.03;8471895;33;20895;-72
2021/10/18 07:35:26;;;;;;;9.98;6.38;;;;;;;10.02;64.36;101243.66;8487641;33;20597;-72
2021/10/18 07:40:32;;;;;;;8.48;6.93;;;;;;;10.50;63.75;101238.66;8491739;33;21132;-73
2021/10/18 07:45:35;;;;;;;13.95;7.07;;;;;;;10.64;62.54;101237.75;8491095;33;21439;-73
2021/10/18 07:50:38;;;;;;;12.30;7.28;;;;;;;11.10;62.44;101237.25;8485388;33;20625;-73
2021/10/18 07:55:42;;;;;;;10.40;7.55;;;;;;;11.53;60.17;101236.97;8490455;33;20180;-73
2021/10/18 08:00:55;;;;;;;11.57;7.22;;;;;;;11.73;60.04;101238.19;8489908;33;20188;-73
2021/10/18 08:05:58;;;;;;;12.77;6.60;;;;;;;11.85;59.23;101241.84;8412735;34;20465;-73
2021/10/18 08:11:03;;;;;;;7.88;5.50;;;;;;;12.03;58.08;101235.09;8431384;34;20418;-73
2021/10/18 08:16:07;;;;;;;11.63;6.43;;;;;;;11.85;57.56;101247.25;8431780;34;20297;-72
2021/10/18 08:21:12;;;;;;;13.35;6.63;;;;;;;12.03;58.80;101253.94;8453540;33;20184;-73
2021/10/18 08:26:17;;;;;;;7.80;6.22;;;;;;;12.46;57.75;101264.28;8453571;33;21468;-73
2021/10/18 08:31:20;;;;;;;12.70;5.82;;;;;;;12.40;56.52;101259.34;8431749;33;20160;-73
2021/10/18 08:36:23;;;;;;;8.27;5.40;;;;;;;11.89;54.83;101257.66;8430928;33;20154;-74
2021/10/18 08:41:33;;;;;;;8.88;5.30;;;;;;;11.55;56.04;101261.94;8439397;33;20390;-73
2021/10/18 08:46:36;;;;;;;10.25;5.18;;;;;;;11.76;55.59;101259.50;8443224;33;20180;-73
2021/10/18 08:51:39;;;;;;;6.22;4.82;;;;;;;12.21;55.06;101265.22;8467181;33;20188;-73
2021/10/18 08:56:44;;;;;;;7.60;5.88;;;;;;;12.50;54.36;101254.97;8485743;33;20955;-73
2021/10/18 09:01:50;;;;;;;6.38;5.72;;;;;;;12.45;53.43;101249.09;8489428;33;20464;-73
2021/10/18 09:06:56;;;;;;;8.00;5.15;;;;;;;12.42;54.06;101243.91;8483693;33;21226;-73
2021/10/18 09:12:01;;;;;;;10.20;6.40;;;;;;;12.34;53.39;101254.41;8457865;33;21030;-74
2021/10/18 09:17:04;;;;;;;8.95;6.00;;;;;;;12.27;52.96;101248.59;8423241;34;20169;-72
2021/10/18 09:22:08;;;;;;;7.25;5.40;;;;;;;12.66;53.43;101246.59;8425771;34;20498;-73
2021/10/18 09:27:18;;;;;;;8.25;5.15;;;;;;;13.00;52.41;101246.66;8430076;34;21180;-73
2021/10/18 09:32:28;;;;;;;5.95;4.93;;;;;;;13.60;51.50;101245.56;8428698;34;21006;-73
2021/10/18 09:37:38;;;;;;;7.80;4.63;;;;;;;13.63;50.41;101249.81;8429572;34;20142;-73
2021/10/18 09:43:04;;;;;;;7.20;4.82;;;;;;;13.67;49.98;101245.91;8431905;34;20413;-73
2021/10/18 10:53:47;;;;;;;6.00;4.50;;;;;;;14.75;46.61;101222.50;8478150;33;20223;-73
2021/10/18 10:58:53;;;;;;;7.15;4.40;;;;;;;14.72;46.53;101217.38;8451066;33;20470;-73
2021/10/18 11:03:57;;;;;;;4.40;3.30;;;;;;;14.59;47.36;101208.63;8479817;33;20597;-73
2021/10/18 11:09:01;;;;;;;4.47;3.30;;;;;;;14.89;45.97;101205.13;8467511;33;20874;-73
2021/10/18 11:14:04;;;;;;;6.03;3.85;;;;;;;15.21;46.01;101204.16;8480736;33;20458;-73
2021/10/18 11:19:08;;;;;;;3.63;2.95;;;;;;;15.76;44.26;101191.13;8478700;33;20714;-73
2021/10/18 11:24:12;;;;;;;3.92;2.67;;;;;;;16.02;43.73;101187.94;8475477;33;20699;-73
2021/10/18 11:29:30;;;;;;;7.83;2.97;;;;;;;15.94;43.61;101177.78;8480470;33;20583;-73
2021/10/18 11:34:35;;;;;;;3.33;2.65;;;;;;;16.22;44.00;101175.25;8479382;33;20468;-74
2021/10/18 11:39:38;;;;;;;3.63;2.90;;;;;;;16.42;41.90;101182.41;8478546;33;21526;-73
2021/10/18 11:44:53;;;;;;;5.47;3.03;;;;;;;16.02;42.53;101174.38;8485719;33;20195;-73
2021/10/18 11:50:24;;;;;;;3.53;2.40;;;;;;;16.41;43.42;101180.69;8483928;33;20662;-74
2021/10/18 11:55:30;;;;;;;3.90;2.70;;;;;;;16.48;42.53;101171.00;8479284;33;20258;-73
2021/10/18 12:00:41;;;;;;;3.28;2.25;;;;;;;16.29;41.39;101154.72;8480271;33;20420;-73
2021/10/18 12:05:49;;;;;;;3.15;2.38;;;;;;;16.84;40.96;101145.94;8481712;33;20908;-73
2021/10/18 12:10:52;;;;;;;3.20;2.63;;;;;;;16.56;41.52;101135.00;8485898;33;21138;-73
2021/10/18 12:16:08;;;;;;;4.18;2.75;;;;;;;16.59;42.54;101129.28;8490130;33;20416;-74
2021/10/18 12:21:15;;;;;;;4.97;2.63;;;;;;;17.63;41.17;101121.88;8491642;33;20430;-73
2021/10/18 12:26:21;;;;;;;5.57;2.63;;;;;;;17.59;41.28;101131.34;8489900;33;20188;-74
2021/10/18 12:31:39;;;;;;;3.55;2.60;;;;;;;17.09;42.01;101114.59;8467384;33;20232;-74
2021/10/18 12:37:04;;;;;;;5.45;2.83;;;;;;;16.97;42.04;101106.59;8449590;33;20469;-73
2021/10/18 12:42:09;;;;;;;4.88;2.80;;;;;;;17.15;43.16;101109.44;8447217;33;20141;-74
2021/10/18 12:47:19;;;;;;;2.65;2.45;;;;;;;17.82;41.57;101098.31;8452673;33;20417;-74
2021/10/18 12:52:31;;;;;;;4.00;2.78;;;;;;;17.55;40.92;101081.06;8437123;33;20166;-74
2021/10/18 12:57:35;;;;;;;4.68;2.67;;;;;;;17.03;42.47;101068.03;8426266;34;20438;-74
2021/10/18 13:02:40;;;;;;;4.60;2.55;;;;;;;16.84;41.49;101075.38;8420650;34;20418;-73
2021/10/18 13:07:51;;;;;;;3.40;2.60;;;;;;;17.15;40.62;101060.56;8429597;34;20215;-74
2021/10/18 13:12:55;;;;;;;4.50;2.20;;;;;;;17.43;40.63;101050.53;8431041;34;20415;-74
2021/10/18 13:17:58;;;;;;;4.72;2.75;;;;;;;18.04;39.44;101048.94;8428815;34;20169;-74
2021/10/18 13:23:06;;;;;;;4.30;2.33;;;;;;;18.39;39.39;101030.00;8426606;34;20212;-74
2021/10/18 13:28:11;;;;;;;2.50;2.20;;;;;;;18.37;38.63;101027.44;8416244;34;21381;-73
2021/10/18 13:33:14;;;;;;;4.70;2.20;;;;;;;18.25;39.27;101013.25;8430438;34;20384;-74
2021/10/18 13:38:19;;;;;;;2.50;2.30;;;;;;;17.32;40.71;101010.03;8433090;34;20561;-73
2021/10/18 13:43:22;;;;;;;3.72;2.58;;;;;;;17.68;40.91;101007.31;8432094;34;20428;-73
2021/10/18 13:48:26;;;;;;;3.55;2.55;;;;;;;17.68;41.59;101005.47;8433344;34;20458;-74
2021/10/18 13:53:30;;;;;;;5.35;3.00;;;;;;;17.60;43.24;101009.97;8431121;34;20612;-74
2021/10/18 13:58:33;;;;;;;5.30;2.92;;;;;;;17.57;43.93;101005.69;8431270;34;20434;-74
2021/10/18 14:03:36;;;;;;;3.38;2.65;;;;;;;17.26;44.04;101007.94;8430442;34;20444;-74
2021/10/18 14:08:41;;;;;;;4.50;3.10;;;;;;;16.97;44.88;101000.78;8429024;34;20407;-73
2021/10/18 14:13:44;;;;;;;3.53;2.95;;;;;;;16.95;44.60;100985.66;8433841;34;20524;-74
2021/10/18 14:18:48;;;;;;;4.70;3.45;;;;;;;16.77;45.91;100996.47;8429416;34;20428;-74
2021/10/18 14:23:52;;;;;;;5.45;3.45;;;;;;;16.42;46.88;100998.00;8426229;34;20295;-74
2021/10/18 14:28:56;;;;;;;4.22;3.47;;;;;;;15.73;47.69;100991.00;8429827;34;21411;-74
2021/10/18 14:33:59;;;;;;;3.25;2.90;;;;;;;15.32;48.97;100990.22;8429129;34;21060;-73
2021/10/18 14:39:06;;;;;;;4.75;2.80;;;;;;;15.07;49.98;100990.75;8428851;34;20417;-73
2021/10/18 14:44:10;;;;;;;6.70;2.95;;;;;;;14.87;50.46;100981.75;8423371;33;20192;-73
2021/10/18 14:49:13;;;;;;;3.42;2.72;;;;;;;14.76;50.34;100985.41;8447634;33;20271;-73
2021/10/18 14:54:18;;;;;;;3.78;2.97;;;;;;;14.54;50.65;100979.19;8448741;33;20206;-74
2021/10/18 14:59:21;;;;;;;4.53;2.85;;;;;;;14.45;51.31;100984.56;8446559;33;20179;-73
2021/10/18 15:04:24;;;;;;;4.05;2.65;;;;;;;14.37;51.44;100977.97;8449454;33;20327;-73
2021/10/18 15:09:29;;;;;;;4.28;3.38;;;;;;;14.40;51.86;100979.56;8439726;33;21090;-74
2021/10/18 15:14:32;;;;;;;6.53;3.63;;;;;;;14.42;52.05;100987.53;8444164;33;20451;-73
2021/10/18 15:19:35;;;;;;;9.93;5.65;;;;;;;14.30;52.52;100995.69;8435958;33;20427;-73
2021/10/18 15:24:39;;;;;;;18.85;8.88;;;;;;;14.07;53.96;100986.91;8422128;34;20200;-73
2021/10/18 15:29:46;;;;;;;10.32;6.32;;;;;;;13.82;56.85;100968.38;8432172;34;21126;-73
2021/10/18 15:34:49;;;;;;;14.70;8.77;;;;;;;13.56;58.64;100976.00;8432950;34;20872;-73
2021/10/18 15:39:54;;;;;;;15.10;8.65;;;;;;;13.30;59.59;100967.34;8433286;34;20437;-73
2021/10/18 15:44:57;;;;;;;17.23;8.00;;;;;;;13.29;59.63;100971.88;8440707;33;20145;-73
2021/10/18 15:50:00;;;;;;;12.07;7.75;;;;;;;13.19;60.11;100979.91;8462915;33;20161;-73
2021/10/18 15:55:05;;;;;;;22.60;11.77;;;;;;;13.14;60.45;100981.28;8467529;33;20164;-72
2021/10/18 16:00:11;;;;;;;18.00;10.13;;;;;;;12.95;60.81;100973.84;8456025;33;20434;-72
2021/10/18 16:05:14;;;;;;;13.65;10.20;;;;;;;12.74;61.63;100971.03;8463242;33;20579;-73
2021/10/18 16:10:20;;;;;;;14.43;10.07;;;;;;;12.52;61.92;100970.06;8457542;33;20189;-73
2021/10/18 16:15:23;;;;;;;12.13;7.55;;;;;;;12.40;62.54;100973.75;8453800;33;20946;-72
2021/10/18 16:20:27;;;;;;;14.43;8.75;;;;;;;12.23;63.00;100974.16;8425009;33;20463;-72
2021/10/18 16:25:31;;;;;;;13.57;8.57;;;;;;;12.05;63.15;100979.19;8427053;34;20196;-72
2021/10/18 16:30:34;;;;;;;13.85;8.68;;;;;;;11.97;64.09;100989.69;8425467;34;20436;-72
2021/10/18 16:35:37;;;;;;;13.38;8.50;;;;;;;11.91;63.82;101007.19;8426452;34;20432;-73
2021/10/18 16:40:42;;;;;;;16.77;10.88;;;;;;;11.86;64.08;100983.28;8425299;34;20928;-73
2021/10/18 16:45:47;;;;;;;50.70;29.20;;;;;;;11.73;65.05;100979.81;8426206;34;20455;-74
2021/10/18 16:50:50;;;;;;;23.38;14.55;;;;;;;11.66;64.77;100984.81;8460972;33;20700;-74
2021/10/18 16:55:55;;;;;;;16.70;9.80;;;;;;;11.46;65.37;100977.38;8472769;33;20429;-73
2021/10/18 17:00:58;;;;;;;17.08;11.05;;;;;;;11.45;65.42;100991.81;8453060;33;20157;-73
2021/10/18 17:06:01;;;;;;;19.35;11.05;;;;;;;11.25;66.06;100985.25;8448161;33;20455;-74
2021/10/18 17:11:06;;;;;;;18.58;12.02;;;;;;;11.18;66.13;100979.44;8433907;33;20473;-73
2021/10/18 17:16:09;;;;;;;18.67;12.18;;;;;;;11.04;66.55;100990.34;8423773;34;21510;-73
2021/10/18 17:21:13;;;;;;;22.55;12.15;;;;;;;11.11;66.43;100997.00;8426768;34;20227;-73
2021/10/18 17:26:17;;;;;;;17.48;11.48;;;;;;;11.05;66.25;101008.19;8416434;34;20568;-73
2021/10/18 17:31:21;;;;;;;21.20;11.18;;;;;;;11.01;65.95;101015.63;8444164;34;20430;-73
2021/10/18 17:36:24;;;;;;;21.05;13.57;;;;;;;10.97;66.39;101019.53;8442972;34;20146;-73
2021/10/18 17:41:29;;;;;;;21.77;12.90;;;;;;;10.89;66.45;101026.41;8431915;34;20164;-73
2021/10/18 17:46:33;;;;;;;30.27;16.10;;;;;;;10.79;66.71;101023.53;8427542;34;20149;-73
2021/10/18 17:51:36;;;;;;;23.25;13.10;;;;;;;10.69;67.14;101036.75;8429635;33;20526;-73
2021/10/18 17:56:41;;;;;;;21.23;12.35;;;;;;;10.56;67.48;101030.56;8428038;33;20597;-73
2021/10/18 18:01:45;;;;;;;19.85;13.77;;;;;;;10.55;67.42;101026.97;8423922;34;20196;-73
2021/10/18 18:06:48;;;;;;;20.60;11.18;;;;;;;10.49;67.61;101023.88;8402112;34;20189;-72
2021/10/18 18:11:53;;;;;;;19.67;11.43;;;;;;;10.44;67.73;101028.72;8422448;34;20614;-72
2021/10/18 18:16:56;;;;;;;23.90;12.43;;;;;;;10.33;68.13;101022.25;8420459;34;20688;-72
2021/10/18 18:22:00;;;;;;;21.58;12.63;;;;;;;10.15;68.61;101024.41;8426567;34;20142;-72
2021/10/18 18:27:04;;;;;;;24.08;14.95;;;;;;;9.99;69.42;101030.97;8426283;34;20278;-71
2021/10/18 18:32:07;;;;;;;25.77;14.10;;;;;;;10.04;69.22;101018.06;8428457;34;20518;-72
2021/10/18 18:37:10;;;;;;;23.55;13.68;;;;;;;9.93;69.50;101014.31;8430651;34;20437;-72
2021/10/18 18:42:14;;;;;;;21.83;12.60;;;;;;;9.87;69.26;101014.72;8430423;34;20543;-72
2021/10/18 18:47:17;;;;;;;21.27;12.50;;;;;;;9.83;69.51;101005.13;8428964;34;20424;-72
2021/10/18 18:52:20;;;;;;;22.52;13.80;;;;;;;9.73;69.93;101015.59;8430261;34;20436;-72
2021/10/18 18:57:25;;;;;;;29.23;15.75;;;;;;;9.61;70.05;101031.69;8421045;34;20430;-72
2021/10/18 19:02:28;;;;;;;29.42;15.25;;;;;;;9.40;70.95;101040.16;8396990;34;20184;-72
2021/10/18 19:07:32;;;;;;;25.05;13.95;;;;;;;9.36;70.91;101033.31;8422643;34;20430;-72
2021/10/18 19:12:37;;;;;;;20.73;13.18;;;;;;;9.39;71.25;101037.59;8422697;34;21956;-72
2021/10/18 19:17:41;;;;;;;25.48;15.20;;;;;;;9.44;71.13;101024.75;8422813;34;21022;-72
2021/10/18 19:22:45;;;;;;;23.98;13.05;;;;;;;9.40;70.68;101018.72;8417835;34;20181;-72
2021/10/18 19:27:50;;;;;;;21.70;13.65;;;;;;;9.38;70.83;101015.31;8424326;34;20502;-72
2021/10/18 19:32:53;;;;;;;22.67;12.88;;;;;;;9.32;70.89;101015.69;8426104;34;20158;-72
2021/10/18 19:37:57;;;;;;;24.75;13.50;;;;;;;9.23;71.07;101014.47;8422923;34;20411;-72
2021/10/18 19:43:01;;;;;;;23.75;13.60;;;;;;;9.22;71.26;101026.16;8422357;34;20162;-72
2021/10/18 19:48:04;;;;;;;24.90;13.57;;;;;;;9.09;71.35;101030.59;8423625;34;22032;-73
2021/10/18 19:53:08;;;;;;;27.67;14.32;;;;;;;9.08;72.05;101022.66;8448678;33;20531;-72
2021/10/18 19:58:12;;;;;;;22.70;13.50;;;;;;;9.08;71.65;101015.50;8451719;33;20427;-72
2021/10/18 20:03:15;;;;;;;24.10;13.93;;;;;;;9.10;71.39;101018.91;8432290;33;20686;-72
2021/10/18 20:08:18;;;;;;;28.23;14.48;;;;;;;9.11;71.42;100995.66;8456988;33;20185;-72
2021/10/18 20:13:23;;;;;;;28.25;13.85;;;;;;;9.01;71.58;100998.94;8459553;33;20424;-72
2021/10/18 20:18:26;;;;;;;27.13;15.52;;;;;;;9.02;71.38;101022.09;8465908;33;20183;-72
2021/10/18 20:23:29;;;;;;;29.17;14.63;;;;;;;9.02;71.53;101024.78;8467410;33;20265;-71
2021/10/18 20:28:34;;;;;;;29.90;16.15;;;;;;;8.96;71.45;101021.63;8483593;33;21231;-72
2021/10/18 20:33:37;;;;;;;31.75;16.40;;;;;;;8.86;71.73;101020.47;8480489;33;20187;-72
2021/10/18 20:38:41;;;;;;;29.95;15.85;;;;;;;8.79;72.13;101012.00;8474882;33;20180;-73
2021/10/18 20:43:45;;;;;;;30.38;17.00;;;;;;;8.73;72.17;101013.25;8454811;33;20156;-73
2021/10/18 20:48:48;;;;;;;34.88;17.70;;;;;;;8.63;72.59;100995.16;8454518;33;20404;-72
2021/10/18 20:53:51;;;;;;;40.08;19.17;;;;;;;8.65;72.66;100991.44;8441827;33;20416;-73
2021/10/18 20:58:56;;;;;;;36.03;18.90;;;;;;;8.67;72.43;101002.91;8454367;33;21028;-73
2021/10/18 21:03:59;;;;;;;38.60;18.90;;;;;;;8.62;72.51;101005.03;8456538;33;20707;-73
2021/10/18 21:09:02;;;;;;;38.42;18.73;;;;;;;8.66;72.53;100989.63;8464330;33;20619;-73
2021/10/18 21:14:06;;;;;;;38.15;18.20;;;;;;;8.56;72.47;100967.94;8459282;33;20153;-71
2021/10/18 21:19:09;;;;;;;40.50;19.13;;;;;;;8.45;72.78;100971.25;8423574;34;20420;-72
2021/10/18 21:24:12;;;;;;;44.70;21.25;;;;;;;8.43;73.21;100962.44;8446495;34;20597;-72
2021/10/18 21:29:17;;;;;;;40.78;19.98;;;;;;;8.37;73.17;100961.00;8436780;34;20482;-72
2021/10/18 21:34:20;;;;;;;40.95;19.75;;;;;;;8.43;72.96;100956.22;8431865;34;20193;-71
2021/10/18 21:39:23;;;;;;;39.90;19.17;;;;;;;8.45;72.84;100963.22;8432080;34;20200;-71
2021/10/18 21:44:28;;;;;;;38.70;20.38;;;;;;;8.48;72.67;100956.84;8431254;34;20245;-72
2021/10/18 21:49:31;;;;;;;42.08;20.35;;;;;;;8.46;72.72;100966.78;8439767;34;20149;-71
2021/10/18 21:54:35;;;;;;;46.47;21.27;;;;;;;8.47;72.46;100968.50;8445059;34;20195;-71
2021/10/18 21:59:39;;;;;;;36.55;19.08;;;;;;;8.49;72.33;100975.47;8447494;34;20319;-72
2021/10/18 22:04:42;;;;;;;41.35;20.17;;;;;;;8.40;72.59;100968.84;8451919;34;20752;-73
2021/10/18 22:09:47;;;;;;;38.40;18.60;;;;;;;8.44;72.68;100958.78;8452496;34;20307;-71
2021/10/18 22:14:52;;;;;;;43.72;20.40;;;;;;;8.52;72.61;100967.25;8451473;34;20445;-73
2021/10/18 22:19:55;;;;;;;40.50;20.17;;;;;;;8.59;72.49;100957.03;8449869;34;20651;-73
2021/10/18 22:24:58;;;;;;;42.25;21.05;;;;;;;8.57;72.79;100951.75;8450036;34;20152;-71
2021/10/18 22:30:05;;;;;;;37.47;18.83;;;;;;;8.65;72.70;100951.25;8445848;34;20418;-71
2021/10/18 22:35:10;;;;;;;45.47;20.47;;;;;;;8.74;72.91;100960.53;8448014;34;21940;-71
2021/10/18 22:40:13;;;;;;;49.20;21.33;;;;;;;8.68;72.34;100961.78;8426244;34;20814;-72
2021/10/18 22:45:17;;;;;;;41.22;20.05;;;;;;;8.89;71.98;100958.69;8443838;34;20805;-71
2021/10/18 22:50:21;;;;;;;43.83;19.95;;;;;;;8.97;71.75;100967.09;8444534;34;20430;-73
2021/10/18 22:55:24;;;;;;;38.30;19.48;;;;;;;9.02;71.55;100962.25;8443848;34;20188;-72
2021/10/18 23:00:28;;;;;;;42.33;19.77;;;;;;;8.98;71.80;100958.09;8444743;34;20154;-72
2021/10/18 23:05:31;;;;;;;40.70;21.00;;;;;;;8.93;71.62;100936.94;8415242;34;22042;-72
2021/10/18 23:10:35;;;;;;;38.75;19.55;;;;;;;8.94;72.39;100935.09;8431573;34;20937;-72
2021/10/18 23:15:39;;;;;;;40.45;19.45;;;;;;;8.99;72.08;100933.00;8429043;34;20406;-72
2021/10/18 23:20:42;;;;;;;38.15;19.67;;;;;;;9.01;71.97;100931.94;8430605;34;20553;-73
2021/10/18 23:25:45;;;;;;;41.50;20.05;;;;;;;8.99;72.18;100933.84;8427148;34;20533;-72
2021/10/18 23:30:50;;;;;;;42.28;22.35;;;;;;;9.02;71.87;100947.06;8427643;34;20431;-74
2021/10/18 23:35:53;;;;;;;37.13;19.52;;;;;;;8.98;72.16;100937.50;8430500;34;20242;-73
2021/10/18 23:40:56;;;;;;;42.35;19.88;;;;;;;9.01;72.29;100934.63;8429944;34;20161;-72
2021/10/18 23:46:00;;;;;;;41.45;19.80;;;;;;;8.96;72.44;100931.38;8435470;34;20152;-72
2021/10/18 23:51:04;;;;;;;35.60;18.77;;;;;;;8.97;72.80;100941.16;8443982;34;20434;-71
2021/10/18 23:56:07;;;;;;;36.95;18.95;;;;;;;8.95;72.83;100942.22;8445092;34;20327;-72
